createdAt,value
2017-11-26T00:02:06.293Z,4.90
2017-11-26T00:04:34.534Z,4.60
2017-11-26T00:07:02.111Z,4.80
2017-11-26T00:09:30.360Z,4.50
2017-11-26T00:11:57.847Z,4.80
2017-11-26T00:14:25.313Z,4.50
2017-11-26T00:16:53.559Z,4.50
2017-11-26T00:19:21.037Z,4.50
2017-11-26T00:21:48.593Z,4.20
2017-11-26T00:24:16.148Z,4.40
2017-11-26T00:26:43.724Z,4.20
2017-11-26T00:29:12.924Z,4.20
2017-11-26T00:31:41.290Z,4.40
2017-11-26T00:34:10.283Z,4.20
2017-11-26T00:36:37.846Z,4.50
2017-11-26T00:39:05.410Z,4.30
2017-11-26T00:41:32.969Z,4.30
2017-11-26T00:44:00.526Z,4.50
2017-11-26T00:46:28.005Z,4.50
2017-11-26T00:48:56.240Z,4.20
2017-11-26T00:51:23.727Z,4.20
2017-11-26T00:53:51.197Z,4.40
2017-11-26T00:56:19.445Z,4.30
2017-11-26T00:58:46.925Z,4.20
2017-11-26T01:01:15.167Z,4.30
2017-11-26T01:03:42.645Z,4.30
2017-11-26T01:06:10.137Z,4.20
2017-11-26T01:08:37.617Z,3.90
2017-11-26T01:11:05.139Z,3.90
2017-11-26T01:13:33.385Z,4.00
2017-11-26T01:16:00.949Z,3.80
2017-11-26T01:18:28.420Z,4.00
2017-11-26T01:20:56.698Z,4.00
2017-11-26T01:23:24.177Z,4.10
2017-11-26T01:25:52.405Z,4.10
2017-11-26T01:28:19.981Z,4.10
2017-11-26T01:30:47.453Z,4.00
2017-11-26T01:33:15.701Z,4.20
2017-11-26T01:35:43.177Z,4.20
2017-11-26T01:38:10.645Z,4.00
2017-11-26T01:40:38.876Z,3.90
2017-11-26T01:43:06.354Z,4.00
2017-11-26T01:45:33.831Z,4.10
2017-11-26T01:48:01.321Z,4.00
2017-11-26T01:50:28.789Z,4.10
2017-11-26T01:52:56.270Z,3.80
2017-11-26T01:55:23.734Z,3.90
2017-11-26T01:57:51.225Z,3.90
2017-11-26T02:00:19.460Z,3.90
2017-11-26T02:02:47.160Z,4.10
2017-11-26T02:05:14.639Z,3.90
2017-11-26T02:07:42.991Z,4.20
2017-11-26T02:10:10.460Z,3.80
2017-11-26T02:12:37.944Z,4.00
2017-11-26T02:15:05.419Z,3.90
2017-11-26T02:17:32.905Z,4.10
2017-11-26T02:20:00.374Z,4.00
2017-11-26T02:22:27.837Z,4.00
2017-11-26T02:24:55.316Z,4.00
2017-11-26T02:27:23.550Z,4.20
2017-11-26T02:29:51.030Z,3.90
2017-11-26T02:32:30.481Z,3.80
2017-11-26T02:35:09.823Z,4.00
2017-11-26T02:37:38.085Z,4.00
2017-11-26T02:40:06.362Z,4.10
2017-11-26T02:42:35.367Z,4.00
2017-11-26T02:45:02.841Z,4.10
2017-11-26T02:47:31.072Z,4.20
2017-11-26T02:49:58.556Z,4.10
2017-11-26T02:52:26.017Z,4.10
2017-11-26T02:54:53.483Z,4.20
2017-11-26T02:57:21.724Z,4.20
2017-11-26T02:59:49.232Z,4.10
2017-11-26T03:02:16.697Z,4.30
2017-11-26T03:04:44.221Z,4.20
2017-11-26T03:07:11.680Z,4.20
2017-11-26T03:09:39.173Z,4.30
2017-11-26T03:12:06.645Z,4.20
2017-11-26T03:14:34.117Z,4.30
2017-11-26T03:17:01.603Z,4.30
2017-11-26T03:19:29.079Z,4.20
2017-11-26T03:21:57.320Z,4.20
2017-11-26T03:24:24.805Z,4.40
2017-11-26T03:26:52.270Z,4.30
2017-11-26T03:29:20.528Z,4.50
2017-11-26T03:31:48.008Z,4.40
2017-11-26T03:34:16.266Z,4.10
2017-11-26T03:36:43.748Z,4.30
2017-11-26T03:39:11.988Z,4.40
2017-11-26T03:41:39.458Z,4.20
2017-11-26T03:44:06.943Z,4.30
2017-11-26T03:46:35.220Z,4.10
2017-11-26T03:49:03.477Z,4.20
2017-11-26T03:51:31.037Z,4.10
2017-11-26T03:53:58.510Z,4.40
2017-11-26T03:56:26.744Z,4.10
2017-11-26T03:58:54.232Z,4.40
2017-11-26T04:01:21.710Z,4.10
2017-11-26T04:03:49.953Z,4.40
2017-11-26T04:06:17.453Z,4.00
2017-11-26T04:08:45.684Z,4.10
2017-11-26T04:11:13.244Z,4.40
2017-11-26T04:13:40.812Z,4.20
2017-11-26T04:16:08.289Z,4.20
2017-11-26T04:18:36.530Z,4.20
2017-11-26T04:21:04.008Z,4.40
2017-11-26T04:23:32.261Z,4.10
2017-11-26T04:25:59.846Z,4.20
2017-11-26T04:28:27.405Z,4.20
2017-11-26T04:30:54.886Z,4.00
2017-11-26T04:33:23.124Z,4.20
2017-11-26T04:35:50.597Z,4.40
2017-11-26T04:38:18.070Z,4.00
2017-11-26T04:40:46.343Z,4.40
2017-11-26T04:43:13.814Z,4.20
2017-11-26T04:45:42.047Z,4.20
2017-11-26T04:48:09.531Z,4.20
2017-11-26T04:50:37.001Z,4.30
2017-11-26T04:53:04.481Z,4.20
2017-11-26T04:55:32.312Z,4.10
2017-11-26T04:58:00.548Z,4.20
2017-11-26T05:00:28.013Z,4.10
2017-11-26T05:02:55.506Z,4.10
2017-11-26T05:05:22.972Z,4.20
2017-11-26T05:07:51.252Z,4.10
2017-11-26T05:10:19.522Z,4.30
2017-11-26T05:12:47.074Z,4.40
2017-11-26T05:15:14.560Z,4.30
2017-11-26T05:17:42.803Z,4.20
2017-11-26T05:20:10.265Z,4.20
2017-11-26T05:22:37.857Z,4.30
2017-11-26T05:25:06.106Z,4.10
2017-11-26T05:27:33.603Z,4.10
2017-11-26T05:30:01.125Z,4.00
2017-11-26T05:32:28.601Z,4.20
2017-11-26T05:34:56.840Z,3.90
2017-11-26T05:37:24.318Z,4.00
2017-11-26T05:39:51.789Z,4.10
2017-11-26T05:42:20.047Z,3.90
2017-11-26T05:44:47.524Z,4.10
2017-11-26T05:47:15.753Z,3.90
2017-11-26T05:49:43.223Z,3.70
2017-11-26T05:52:10.806Z,3.90
2017-11-26T05:54:38.278Z,3.90
2017-11-26T05:57:06.540Z,3.80
2017-11-26T05:59:34.113Z,4.10
2017-11-26T06:02:02.384Z,4.00
2017-11-26T06:04:30.636Z,3.90
2017-11-26T06:06:58.212Z,3.70
2017-11-26T06:09:25.770Z,4.00
2017-11-26T06:11:53.245Z,4.00
2017-11-26T06:14:21.488Z,4.00
2017-11-26T06:16:49.097Z,3.90
2017-11-26T06:19:16.570Z,4.20
2017-11-26T06:21:44.078Z,4.00
2017-11-26T06:24:11.561Z,3.80
2017-11-26T06:26:39.783Z,3.90
2017-11-26T06:29:07.268Z,3.70
2017-11-26T06:31:34.737Z,3.70
2017-11-26T06:34:02.212Z,3.80
2017-11-26T06:36:30.449Z,3.70
2017-11-26T06:38:57.927Z,3.40
2017-11-26T06:41:25.506Z,3.70
2017-11-26T06:43:53.744Z,3.60
2017-11-26T06:46:21.223Z,3.60
2017-11-26T06:48:48.681Z,3.60
2017-11-26T06:51:16.152Z,3.60
2017-11-26T06:53:44.394Z,3.60
2017-11-26T06:56:11.882Z,3.70
2017-11-26T06:58:40.149Z,3.90
2017-11-26T07:01:07.625Z,3.80
2017-11-26T07:03:35.879Z,3.70
2017-11-26T07:06:03.438Z,3.90
2017-11-26T07:08:31.006Z,3.70
2017-11-26T07:10:58.562Z,3.80
2017-11-26T07:13:26.034Z,3.70
2017-11-26T07:15:54.583Z,3.70
2017-11-26T07:18:22.049Z,3.70
2017-11-26T07:20:49.612Z,4.10
2017-11-26T07:23:17.073Z,3.90
2017-11-26T07:25:44.637Z,3.90
2017-11-26T07:28:12.103Z,4.00
2017-11-26T07:30:40.364Z,4.20
2017-11-26T07:33:07.933Z,4.20
2017-11-26T07:35:35.405Z,4.30
2017-11-26T07:38:03.640Z,4.20
2017-11-26T07:40:31.133Z,4.10
2017-11-26T07:42:59.366Z,4.00
2017-11-26T07:45:26.838Z,4.20
2017-11-26T07:47:54.326Z,4.10
2017-11-26T07:50:22.594Z,4.00
2017-11-26T07:52:50.065Z,4.00
2017-11-26T07:55:18.329Z,4.20
2017-11-26T07:57:45.786Z,4.20
2017-11-26T08:00:13.285Z,4.10
2017-11-26T08:02:40.753Z,4.00
2017-11-26T08:05:08.226Z,4.20
2017-11-26T08:07:35.721Z,4.10
2017-11-26T08:10:03.280Z,4.40
2017-11-26T08:12:30.763Z,4.30
2017-11-26T08:14:59.021Z,4.10
2017-11-26T08:17:26.496Z,4.30
2017-11-26T08:19:54.734Z,4.20
2017-11-26T08:22:22.220Z,4.50
2017-11-26T08:24:49.691Z,4.40
2017-11-26T08:27:17.941Z,4.70
2017-11-26T08:29:45.497Z,4.40
2017-11-26T08:32:12.970Z,4.40
2017-11-26T08:34:41.214Z,4.50
2017-11-26T08:37:08.745Z,4.60
2017-11-26T08:39:36.210Z,4.50
2017-11-26T08:42:03.695Z,4.50
2017-11-26T08:44:31.161Z,4.90
2017-11-26T08:46:58.657Z,4.60
2017-11-26T08:49:26.885Z,4.60
2017-11-26T08:51:54.369Z,4.80
2017-11-26T08:54:21.837Z,4.80
2017-11-26T08:56:50.146Z,4.90
2017-11-26T08:59:17.615Z,4.80
2017-11-26T09:01:45.094Z,4.90
2017-11-26T09:04:12.614Z,4.70
2017-11-26T09:06:49.978Z,4.80
2017-11-26T09:09:18.214Z,4.80
2017-11-26T09:11:45.693Z,4.80
2017-11-26T09:14:13.163Z,4.80
2017-11-26T09:16:40.625Z,5.30
2017-11-26T09:19:08.878Z,5.10
2017-11-26T09:21:36.349Z,5.10
2017-11-26T09:24:03.826Z,5.20
2017-11-26T09:26:32.080Z,5.20
2017-11-26T09:28:59.549Z,5.10
2017-11-26T09:31:27.819Z,5.00
2017-11-26T09:33:55.382Z,5.10
2017-11-26T09:36:22.847Z,5.20
2017-11-26T09:38:50.402Z,5.20
2017-11-26T09:41:17.873Z,5.30
2017-11-26T09:43:46.123Z,5.20
2017-11-26T09:46:13.589Z,5.40
2017-11-26T09:48:41.062Z,5.30
2017-11-26T09:51:09.293Z,5.30
2017-11-26T09:53:36.790Z,5.20
2017-11-26T09:56:05.029Z,5.50
2017-11-26T09:58:32.509Z,5.40
2017-11-26T10:00:59.984Z,5.40
2017-11-26T10:03:27.458Z,5.50
2017-11-26T10:05:55.693Z,5.20
2017-11-26T10:08:23.195Z,5.50
2017-11-26T10:10:51.432Z,5.30
2017-11-26T10:13:18.899Z,5.40
2017-11-26T10:15:46.365Z,5.60
2017-11-26T10:18:13.916Z,5.30
2017-11-26T10:20:41.485Z,5.40
2017-11-26T10:23:09.749Z,5.40
2017-11-26T10:25:37.318Z,5.60
2017-11-26T10:28:04.878Z,5.30
2017-11-26T10:30:32.438Z,5.40
2017-11-26T10:32:59.902Z,5.70
2017-11-26T10:35:28.153Z,5.70
2017-11-26T10:37:55.612Z,5.80
2017-11-26T10:40:23.086Z,5.50
2017-11-26T10:42:50.558Z,5.70
2017-11-26T10:45:18.801Z,5.80
2017-11-26T10:47:46.274Z,5.70
2017-11-26T10:50:13.749Z,6.00
2017-11-26T10:52:41.985Z,5.90
2017-11-26T10:55:09.480Z,5.80
2017-11-26T10:57:37.029Z,5.90
2017-11-26T11:00:04.506Z,5.90
2017-11-26T11:02:32.760Z,6.10
2017-11-26T11:05:00.329Z,6.00
2017-11-26T11:07:28.609Z,6.00
2017-11-26T11:09:56.161Z,6.10
2017-11-26T11:12:23.629Z,5.90
2017-11-26T11:14:51.885Z,6.10
2017-11-26T11:17:19.365Z,6.30
2017-11-26T11:19:46.837Z,6.10
2017-11-26T11:22:15.093Z,6.40
2017-11-26T11:24:42.585Z,6.10
2017-11-26T11:27:10.057Z,6.10
2017-11-26T11:29:37.574Z,6.10
2017-11-26T11:32:05.038Z,6.30
2017-11-26T11:34:33.277Z,6.50
2017-11-26T11:37:00.753Z,6.70
2017-11-26T11:39:28.321Z,6.40
2017-11-26T11:41:55.829Z,6.50
2017-11-26T11:44:23.305Z,6.30
2017-11-26T11:46:50.777Z,6.60
2017-11-26T11:49:18.257Z,6.70
2017-11-26T11:51:45.730Z,6.70
2017-11-26T11:54:13.988Z,6.60
2017-11-26T11:56:41.545Z,6.40
2017-11-26T11:59:09.017Z,6.50
2017-11-26T12:01:37.283Z,6.50
2017-11-26T12:04:05.526Z,6.30
2017-11-26T12:06:33.001Z,6.30
2017-11-26T12:09:00.489Z,6.50
2017-11-26T12:11:27.965Z,6.30
2017-11-26T12:13:55.445Z,6.40
2017-11-26T12:16:22.925Z,6.50
2017-11-26T12:18:50.393Z,6.30
2017-11-26T12:21:17.878Z,6.20
2017-11-26T12:23:45.344Z,6.20
2017-11-26T12:26:13.590Z,6.20
2017-11-26T12:28:41.058Z,6.00
2017-11-26T12:31:08.534Z,5.90
2017-11-26T12:33:36.774Z,6.00
2017-11-26T12:36:04.252Z,6.00
2017-11-26T12:38:31.716Z,5.90
2017-11-26T12:40:59.185Z,5.70
2017-11-26T12:43:27.421Z,5.90
2017-11-26T12:45:54.901Z,5.80
2017-11-26T12:48:22.366Z,5.80
2017-11-26T12:50:49.841Z,5.60
2017-11-26T12:53:18.089Z,5.40
2017-11-26T12:55:45.553Z,5.60
2017-11-26T12:58:13.041Z,5.50
2017-11-26T13:00:41.273Z,5.50
2017-11-26T13:03:08.756Z,5.50
2017-11-26T13:05:36.213Z,5.50
2017-11-26T13:08:04.466Z,5.50
2017-11-26T13:10:31.935Z,5.60
2017-11-26T13:12:59.405Z,5.80
2017-11-26T13:15:26.895Z,5.60
2017-11-26T13:17:54.368Z,5.80
2017-11-26T13:20:21.834Z,5.70
2017-11-26T13:22:49.317Z,5.60
2017-11-26T13:25:16.804Z,5.40
2017-11-26T13:27:44.274Z,5.60
2017-11-26T13:30:12.506Z,5.40
2017-11-26T13:32:39.981Z,5.40
2017-11-26T13:35:07.457Z,5.70
2017-11-26T13:37:35.689Z,5.40
2017-11-26T13:40:03.175Z,5.50
2017-11-26T13:42:30.926Z,5.50
2017-11-26T13:44:58.406Z,5.60
2017-11-26T13:47:25.871Z,5.40
2017-11-26T13:49:54.117Z,5.40
2017-11-26T13:52:21.593Z,5.30
2017-11-26T13:54:49.089Z,5.50
2017-11-26T13:57:16.577Z,5.30
2017-11-26T13:59:44.057Z,5.40
2017-11-26T14:02:11.529Z,5.30
2017-11-26T14:04:39.014Z,5.10
2017-11-26T14:07:06.481Z,5.40
2017-11-26T14:09:33.957Z,5.20
2017-11-26T14:12:01.422Z,5.10
2017-11-26T14:14:28.902Z,5.20
2017-11-26T14:16:56.360Z,5.30
2017-11-26T14:19:23.837Z,5.20
2017-11-26T14:21:51.305Z,5.40
2017-11-26T14:24:19.545Z,5.40
2017-11-26T14:26:47.010Z,5.40
2017-11-26T14:29:14.480Z,5.60
2017-11-26T14:31:41.945Z,5.50
2017-11-26T14:34:09.447Z,5.30
2017-11-26T14:36:36.916Z,5.50
2017-11-26T14:39:04.398Z,5.40
2017-11-26T14:41:31.882Z,5.40
2017-11-26T14:43:59.361Z,5.50
2017-11-26T14:46:27.585Z,5.20
2017-11-26T14:48:55.045Z,5.20
2017-11-26T14:51:22.517Z,5.60
2017-11-26T14:53:49.981Z,5.20
2017-11-26T14:56:17.451Z,5.40
2017-11-26T14:58:45.690Z,5.10
2017-11-26T15:01:13.239Z,5.20
2017-11-26T15:03:40.702Z,5.10
2017-11-26T15:06:08.169Z,4.90
2017-11-26T15:08:35.635Z,5.10
2017-11-26T15:11:03.110Z,5.10
2017-11-26T15:13:30.586Z,4.90
2017-11-26T15:15:58.830Z,5.20
2017-11-26T15:18:26.299Z,5.40
2017-11-26T15:20:53.781Z,5.40
2017-11-26T15:23:22.008Z,5.30
2017-11-26T15:25:49.486Z,5.20
2017-11-26T15:28:16.971Z,5.50
2017-11-26T15:30:45.250Z,5.20
2017-11-26T15:33:13.477Z,5.20
2017-11-26T15:35:40.972Z,5.10
2017-11-26T15:38:08.441Z,5.40
2017-11-26T15:40:36.695Z,5.20
2017-11-26T15:43:04.174Z,5.50
2017-11-26T15:45:32.418Z,5.50
2017-11-26T15:47:59.899Z,5.20
2017-11-26T15:50:27.376Z,5.40
2017-11-26T15:52:54.841Z,5.50
2017-11-26T15:55:22.318Z,5.10
2017-11-26T15:57:49.799Z,5.30
2017-11-26T16:00:23.284Z,5.20
2017-11-26T16:02:50.763Z,5.00
2017-11-26T16:05:18.247Z,5.10
2017-11-26T16:07:45.725Z,5.10
2017-11-26T16:10:14.332Z,5.20
2017-11-26T16:12:41.809Z,5.30
2017-11-26T16:15:09.282Z,5.10
2017-11-26T16:17:36.750Z,5.10
2017-11-26T16:20:04.218Z,5.20
2017-11-26T16:22:31.697Z,5.10
2017-11-26T16:24:59.936Z,5.40
2017-11-26T16:27:27.406Z,5.30
2017-11-26T16:29:55.650Z,5.10
2017-11-26T16:32:23.145Z,5.20
2017-11-26T16:34:50.594Z,5.20
2017-11-26T16:37:18.070Z,5.20
2017-11-26T16:39:46.298Z,5.20
2017-11-26T16:42:13.782Z,5.20
2017-11-26T16:44:41.638Z,5.60
2017-11-26T16:47:09.119Z,5.60
2017-11-26T16:49:36.585Z,5.50
2017-11-26T16:52:04.834Z,5.30
2017-11-26T16:54:32.294Z,5.30
2017-11-26T16:56:59.774Z,5.40
2017-11-26T16:59:27.241Z,5.20
2017-11-26T17:01:55.517Z,5.30
2017-11-26T17:04:23.020Z,5.30
2017-11-26T17:06:50.514Z,5.60
2017-11-26T17:09:17.979Z,5.40
2017-11-26T17:11:45.444Z,5.30
2017-11-26T17:14:13.714Z,5.40
2017-11-26T17:16:41.181Z,5.50
2017-11-26T17:19:09.425Z,5.40
2017-11-26T17:21:36.889Z,5.70
2017-11-26T17:24:05.185Z,5.50
2017-11-26T17:26:32.666Z,5.40
2017-11-26T17:29:00.911Z,5.40
2017-11-26T17:31:28.377Z,5.70
2017-11-26T17:33:56.630Z,5.60
2017-11-26T17:36:24.097Z,5.70
2017-11-26T17:38:51.574Z,5.30
2017-11-26T17:41:19.039Z,5.60
2017-11-26T17:43:47.286Z,5.30
2017-11-26T17:46:14.757Z,5.40
2017-11-26T17:48:42.244Z,5.50
2017-11-26T17:51:10.485Z,5.40
2017-11-26T17:53:37.957Z,5.40
2017-11-26T17:56:05.428Z,5.30
2017-11-26T17:58:33.673Z,5.60
2017-11-26T18:01:01.137Z,5.70
2017-11-26T18:03:28.616Z,5.70
2017-11-26T18:05:56.854Z,5.60
2017-11-26T18:08:24.326Z,5.40
2017-11-26T18:10:51.795Z,5.70
2017-11-26T18:13:19.260Z,5.30
2017-11-26T18:15:46.736Z,5.40
2017-11-26T18:18:14.965Z,5.40
2017-11-26T18:20:42.431Z,5.60
2017-11-26T18:23:09.900Z,5.20
2017-11-26T18:25:37.379Z,5.40
2017-11-26T18:28:05.617Z,5.30
2017-11-26T18:30:33.105Z,5.70
2017-11-26T18:33:00.566Z,5.60
2017-11-26T18:35:28.818Z,5.60
2017-11-26T18:37:56.287Z,5.70
2017-11-26T18:40:23.769Z,5.50
2017-11-26T18:42:51.997Z,5.30
2017-11-26T18:45:19.476Z,5.00
2017-11-26T18:47:46.945Z,5.20
2017-11-26T18:50:14.426Z,5.20
2017-11-26T18:52:41.912Z,5.40
2017-11-26T18:55:09.377Z,5.50
2017-11-26T18:57:36.847Z,5.40
2017-11-26T19:00:04.320Z,5.40
2017-11-26T19:02:31.785Z,5.60
2017-11-26T19:04:59.273Z,5.10
2017-11-26T19:07:26.761Z,5.20
2017-11-26T19:09:54.241Z,5.10
2017-11-26T19:12:21.725Z,5.10
2017-11-26T19:14:49.193Z,4.90
2017-11-26T19:17:17.438Z,5.20
2017-11-26T19:19:44.905Z,5.40
2017-11-26T19:22:12.382Z,5.40
2017-11-26T19:24:40.622Z,5.10
2017-11-26T19:27:08.107Z,5.20
2017-11-26T19:29:35.577Z,5.30
2017-11-26T19:32:03.831Z,5.20
2017-11-26T19:34:31.300Z,5.20
2017-11-26T19:36:58.785Z,5.10
2017-11-26T19:39:26.253Z,5.40
2017-11-26T19:41:53.733Z,5.40
2017-11-26T19:44:21.202Z,5.50
2017-11-26T19:46:48.680Z,5.10
2017-11-26T19:49:16.158Z,5.30
2017-11-26T19:51:44.408Z,5.10
2017-11-26T19:54:11.886Z,5.30
2017-11-26T19:56:39.357Z,5.30
2017-11-26T19:59:06.832Z,5.40
2017-11-26T20:01:34.328Z,5.00
2017-11-26T20:04:01.831Z,4.90
2017-11-26T20:06:30.081Z,5.20
2017-11-26T20:08:57.557Z,5.00
2017-11-26T20:11:25.034Z,5.30
2017-11-26T20:13:53.030Z,5.00
2017-11-26T20:16:20.492Z,5.20
2017-11-26T20:18:47.970Z,5.30
2017-11-26T20:21:15.450Z,5.30
2017-11-26T20:23:42.921Z,5.10
2017-11-26T20:26:14.216Z,5.00
2017-11-26T20:28:41.695Z,4.90
2017-11-26T20:31:09.178Z,5.20
2017-11-26T20:33:36.662Z,5.20
2017-11-26T20:36:04.910Z,5.10
2017-11-26T20:38:32.394Z,5.10
2017-11-26T20:41:00.633Z,5.20
2017-11-26T20:43:28.118Z,5.30
2017-11-26T20:45:56.363Z,5.50
2017-11-26T20:48:23.833Z,5.00
2017-11-26T20:50:51.302Z,5.30
2017-11-26T20:53:18.769Z,5.40
2017-11-26T20:55:47.007Z,5.40
2017-11-26T20:58:14.477Z,5.00
2017-11-26T21:00:41.958Z,5.30
2017-11-26T21:03:10.204Z,5.30
2017-11-26T21:05:37.680Z,5.00
2017-11-26T21:08:05.166Z,5.10
2017-11-26T21:10:33.402Z,5.00
2017-11-26T21:13:00.898Z,5.10
2017-11-26T21:15:29.130Z,5.20
2017-11-26T21:17:56.611Z,5.20
2017-11-26T21:20:24.086Z,4.80
2017-11-26T21:22:52.326Z,5.20
2017-11-26T21:25:19.802Z,5.00
2017-11-26T21:27:47.282Z,4.90
2017-11-26T21:30:15.530Z,5.10
2017-11-26T21:32:43.045Z,5.20
2017-11-26T21:35:10.513Z,5.30
2017-11-26T21:37:38.052Z,5.30
2017-11-26T21:40:05.517Z,5.30
2017-11-26T21:42:33.002Z,5.10
2017-11-26T21:45:00.470Z,5.10
2017-11-26T21:47:27.941Z,5.10
2017-11-26T21:49:55.409Z,5.10
2017-11-26T21:52:22.878Z,5.30
2017-11-26T21:54:51.125Z,5.00
2017-11-26T21:57:18.589Z,4.90
2017-11-26T21:59:46.065Z,5.20
2017-11-26T22:02:14.293Z,5.10
2017-11-26T22:04:41.767Z,5.10
2017-11-26T22:07:09.230Z,5.20
2017-11-26T22:09:36.701Z,5.00
2017-11-26T22:12:04.181Z,5.20
2017-11-26T22:14:32.435Z,5.10
2017-11-26T22:16:59.926Z,5.10
2017-11-26T22:19:28.169Z,5.00
2017-11-26T22:21:55.644Z,5.20
2017-11-26T22:24:23.886Z,5.50
2017-11-26T22:26:52.121Z,5.40
2017-11-26T22:29:19.596Z,5.20
2017-11-26T22:31:47.060Z,5.40
2017-11-26T22:34:14.541Z,5.10
2017-11-26T22:36:42.009Z,5.30
2017-11-26T22:39:09.489Z,5.30
2017-11-26T22:41:37.737Z,5.00
2017-11-26T22:44:05.217Z,5.30
2017-11-26T22:46:32.780Z,5.10
2017-11-26T22:49:01.046Z,5.20
2017-11-26T22:51:28.523Z,5.50
2017-11-26T22:53:56.754Z,5.00
2017-11-26T22:56:24.242Z,5.10
2017-11-26T22:58:51.710Z,5.10
2017-11-26T23:01:19.958Z,5.10
2017-11-26T23:03:47.415Z,5.00
2017-11-26T23:06:14.891Z,4.80
2017-11-26T23:08:42.361Z,4.90
2017-11-26T23:11:10.606Z,4.90
2017-11-26T23:13:38.076Z,4.90
2017-11-26T23:16:05.550Z,5.00
2017-11-26T23:18:33.009Z,4.80
2017-11-26T23:21:01.253Z,4.70
2017-11-26T23:23:28.729Z,4.90
2017-11-26T23:25:56.210Z,4.80
2017-11-26T23:28:24.456Z,5.10
2017-11-26T23:30:51.973Z,4.90
2017-11-26T23:33:19.458Z,5.00
2017-11-26T23:35:46.938Z,4.90
2017-11-26T23:38:14.407Z,4.80
2017-11-26T23:40:41.885Z,4.70
2017-11-26T23:43:10.118Z,4.90
2017-11-26T23:45:37.602Z,5.00
2017-11-26T23:48:05.839Z,4.90
2017-11-26T23:50:33.325Z,4.80
2017-11-26T23:53:00.822Z,4.80
2017-11-26T23:55:29.056Z,5.10
2017-11-26T23:57:56.514Z,5.00
